createdAt,value
2019-06-10T00:00:16.818Z,15.17
2019-06-10T00:01:08.643Z,15.17
2019-06-10T00:02:07.269Z,15.13
2019-06-10T00:03:07.257Z,15.10
2019-06-10T00:04:08.704Z,15.10
2019-06-10T00:05:07.713Z,15.11
2019-06-10T00:06:07.077Z,15.09
2019-06-10T00:07:07.375Z,15.03
2019-06-10T00:08:07.098Z,15.02
2019-06-10T00:09:08.072Z,15.02
2019-06-10T00:10:07.433Z,15.06
2019-06-10T00:11:07.847Z,15.03
2019-06-10T00:12:08.167Z,15.01
2019-06-10T00:13:07.328Z,15.01
2019-06-10T00:14:07.387Z,14.99
2019-06-10T00:15:07.771Z,14.98
2019-06-10T00:16:07.941Z,14.95
2019-06-10T00:17:07.959Z,14.95
2019-06-10T00:18:26.271Z,14.95
2019-06-10T00:19:09.394Z,14.96
2019-06-10T00:20:08.252Z,14.98
2019-06-10T00:21:07.955Z,14.98
2019-06-10T00:22:07.216Z,14.95
2019-06-10T00:23:07.177Z,14.98
2019-06-10T00:24:07.378Z,14.98
2019-06-10T00:25:07.309Z,14.99
2019-06-10T00:26:08.045Z,15.02
2019-06-10T00:27:07.222Z,15.02
2019-06-10T00:28:07.414Z,15.01
2019-06-10T00:29:07.822Z,14.98
2019-06-10T00:30:07.845Z,15.01
2019-06-10T00:31:16.534Z,14.94
2019-06-10T00:32:08.159Z,14.92
2019-06-10T00:33:07.709Z,14.92
2019-06-10T00:34:07.810Z,14.91
2019-06-10T00:35:07.720Z,14.91
2019-06-10T00:36:08.611Z,14.88
2019-06-10T00:37:09.182Z,14.86
2019-06-10T00:38:08.928Z,14.84
2019-06-10T00:39:07.290Z,14.88
2019-06-10T00:40:08.632Z,14.86
2019-06-10T00:41:07.626Z,14.86
2019-06-10T00:42:08.071Z,14.88
2019-06-10T00:43:07.304Z,14.88
2019-06-10T00:44:06.914Z,14.84
2019-06-10T00:45:09.477Z,14.83
2019-06-10T00:46:07.773Z,14.83
2019-06-10T00:47:07.945Z,14.81
2019-06-10T00:48:17.599Z,14.78
2019-06-10T00:49:08.134Z,14.75
2019-06-10T00:50:08.529Z,14.73
2019-06-10T00:51:07.318Z,14.75
2019-06-10T00:52:07.352Z,14.70
2019-06-10T00:53:07.482Z,14.68
2019-06-10T00:54:06.970Z,14.68
2019-06-10T00:55:07.690Z,14.62
2019-06-10T00:56:07.303Z,14.61
2019-06-10T00:57:07.296Z,14.60
2019-06-10T00:58:06.143Z,14.61
2019-06-10T00:59:06.137Z,14.61
2019-06-10T01:00:14.615Z,14.58
2019-06-10T01:01:07.973Z,14.55
2019-06-10T01:02:16.722Z,14.55
2019-06-10T01:03:06.164Z,14.57
2019-06-10T01:04:06.861Z,14.60
2019-06-10T01:05:07.167Z,14.58
2019-06-10T01:06:06.526Z,14.57
2019-06-10T01:07:06.523Z,14.52
2019-06-10T01:08:06.643Z,14.57
2019-06-10T01:09:06.713Z,14.55
2019-06-10T01:10:06.745Z,14.60
2019-06-10T01:11:16.554Z,14.57
2019-06-10T01:12:06.982Z,14.60
2019-06-10T01:13:07.025Z,14.62
2019-06-10T01:14:07.323Z,14.61
2019-06-10T01:15:07.336Z,14.60
2019-06-10T01:16:05.955Z,14.58
2019-06-10T01:17:05.961Z,14.60
2019-06-10T01:18:05.927Z,14.60
2019-06-10T01:19:05.922Z,14.58
2019-06-10T01:20:05.955Z,14.52
2019-06-10T01:21:05.921Z,14.46
2019-06-10T01:22:06.039Z,14.45
2019-06-10T01:23:06.972Z,14.47
2019-06-10T01:24:06.986Z,14.46
2019-06-10T01:25:05.849Z,14.46
2019-06-10T01:26:05.884Z,14.43
2019-06-10T01:27:05.824Z,14.42
2019-06-10T01:28:05.854Z,14.43
2019-06-10T01:29:05.820Z,14.43
2019-06-10T01:30:10.290Z,14.39
2019-06-10T01:31:10.884Z,14.36
2019-06-10T01:32:07.161Z,14.36
2019-06-10T01:33:17.570Z,14.37
2019-06-10T01:34:05.756Z,14.40
2019-06-10T01:35:06.530Z,14.39
2019-06-10T01:36:05.742Z,14.37
2019-06-10T01:37:06.760Z,14.36
2019-06-10T01:38:05.918Z,14.33
2019-06-10T01:39:06.725Z,14.36
2019-06-10T01:40:06.045Z,14.40
2019-06-10T01:41:06.060Z,14.37
2019-06-10T01:42:06.208Z,14.33
2019-06-10T01:43:06.337Z,14.37
2019-06-10T01:44:06.447Z,14.35
2019-06-10T01:45:06.533Z,14.35
2019-06-10T01:46:06.630Z,14.36
2019-06-10T01:47:06.691Z,14.35
2019-06-10T01:48:06.797Z,14.35
2019-06-10T01:49:06.671Z,14.33
2019-06-10T01:50:05.588Z,14.32
2019-06-10T01:51:05.600Z,14.28
2019-06-10T01:52:05.570Z,14.28
2019-06-10T01:53:05.541Z,14.28
2019-06-10T01:54:05.531Z,14.25
2019-06-10T01:55:05.532Z,14.25
2019-06-10T01:56:05.519Z,14.29
2019-06-10T01:57:05.512Z,14.36
2019-06-10T01:58:05.494Z,14.35
2019-06-10T01:59:05.511Z,14.36
2019-06-10T02:00:10.439Z,14.42
2019-06-10T02:01:06.461Z,14.42
2019-06-10T02:02:05.463Z,14.43
2019-06-10T02:03:05.451Z,14.43
2019-06-10T02:04:16.677Z,14.42
2019-06-10T02:05:05.414Z,14.45
2019-06-10T02:06:05.402Z,14.42
2019-06-10T02:07:05.430Z,14.40
2019-06-10T02:08:05.397Z,14.40
2019-06-10T02:09:05.372Z,14.39
2019-06-10T02:10:05.365Z,14.45
2019-06-10T02:11:05.351Z,14.46
2019-06-10T02:12:05.348Z,14.46
2019-06-10T02:13:05.332Z,14.43
2019-06-10T02:14:05.339Z,14.45
2019-06-10T02:15:05.303Z,14.46
2019-06-10T02:16:05.304Z,14.45
2019-06-10T02:17:05.290Z,14.45
2019-06-10T02:18:05.310Z,14.47
2019-06-10T02:19:05.269Z,14.46
2019-06-10T02:20:05.270Z,14.45
2019-06-10T02:21:05.250Z,14.43
2019-06-10T02:22:05.250Z,14.43
2019-06-10T02:23:05.230Z,14.46
2019-06-10T02:24:05.232Z,14.43
2019-06-10T02:25:05.210Z,14.42
2019-06-10T02:26:05.209Z,14.45
2019-06-10T02:27:05.203Z,14.46
2019-06-10T02:28:05.166Z,14.46
2019-06-10T02:29:05.190Z,14.47
2019-06-10T02:30:14.851Z,14.46
2019-06-10T02:31:06.166Z,14.50
2019-06-10T02:32:05.963Z,14.46
2019-06-10T02:33:05.109Z,14.50
2019-06-10T02:34:05.148Z,14.52
2019-06-10T02:35:26.181Z,14.54
2019-06-10T02:36:06.078Z,14.55
2019-06-10T02:37:05.197Z,14.61
2019-06-10T02:38:05.061Z,14.64
2019-06-10T02:39:05.077Z,14.64
2019-06-10T02:40:05.052Z,14.69
2019-06-10T02:41:05.113Z,14.65
2019-06-10T02:42:05.067Z,14.65
2019-06-10T02:43:05.021Z,14.70
2019-06-10T02:44:05.038Z,14.75
2019-06-10T02:45:05.010Z,14.77
2019-06-10T02:46:05.212Z,14.75
2019-06-10T02:47:04.964Z,14.78
2019-06-10T02:48:04.969Z,14.81
2019-06-10T02:49:20.932Z,14.83
2019-06-10T02:50:08.697Z,14.86
2019-06-10T02:51:04.966Z,14.88
2019-06-10T02:52:04.924Z,14.88
2019-06-10T02:53:04.907Z,14.83
2019-06-10T02:54:05.154Z,14.80
2019-06-10T02:55:04.991Z,14.84
2019-06-10T02:56:04.888Z,14.89
2019-06-10T02:57:04.901Z,14.92
2019-06-10T02:58:04.853Z,14.95
2019-06-10T02:59:04.859Z,14.96
2019-06-10T03:00:15.644Z,14.94
2019-06-10T03:01:05.850Z,14.91
2019-06-10T03:02:04.824Z,14.92
2019-06-10T03:03:04.819Z,14.91
2019-06-10T03:04:04.915Z,14.94
2019-06-10T03:05:05.004Z,14.91
2019-06-10T03:06:17.866Z,14.94
2019-06-10T03:07:04.775Z,14.96
2019-06-10T03:08:04.753Z,14.94
2019-06-10T03:09:04.728Z,14.96
2019-06-10T03:10:05.015Z,14.99
2019-06-10T03:11:04.708Z,14.98
2019-06-10T03:12:05.085Z,14.96
2019-06-10T03:13:04.687Z,14.89
2019-06-10T03:14:04.691Z,14.91
2019-06-10T03:15:04.678Z,14.91
2019-06-10T03:16:04.647Z,14.94
2019-06-10T03:17:04.693Z,14.98
2019-06-10T03:18:04.646Z,14.96
2019-06-10T03:19:04.618Z,14.99
2019-06-10T03:20:04.610Z,15.01
2019-06-10T03:21:04.596Z,15.06
2019-06-10T03:22:04.588Z,15.03
2019-06-10T03:23:04.628Z,15.06
2019-06-10T03:24:04.568Z,15.06
2019-06-10T03:25:04.576Z,15.10
2019-06-10T03:26:04.577Z,15.13
2019-06-10T03:27:04.576Z,15.10
2019-06-10T03:28:04.537Z,15.11
2019-06-10T03:29:04.549Z,15.13
2019-06-10T03:30:14.720Z,15.17
2019-06-10T03:31:06.412Z,15.17
2019-06-10T03:32:05.166Z,15.16
2019-06-10T03:33:05.146Z,15.16
2019-06-10T03:34:05.326Z,15.17
2019-06-10T03:35:05.403Z,15.17
2019-06-10T03:36:04.451Z,15.19
2019-06-10T03:37:16.100Z,15.25
2019-06-10T03:38:04.447Z,15.27
2019-06-10T03:39:04.446Z,15.25
2019-06-10T03:40:04.408Z,15.20
2019-06-10T03:41:04.398Z,15.17
2019-06-10T03:42:04.376Z,15.21
2019-06-10T03:43:04.377Z,15.29
2019-06-10T03:44:04.360Z,15.32
2019-06-10T03:45:04.376Z,15.31
2019-06-10T03:46:04.343Z,15.35
2019-06-10T03:47:04.339Z,15.36
2019-06-10T03:48:04.326Z,15.35
2019-06-10T03:49:04.316Z,15.36
2019-06-10T03:50:04.332Z,15.39
2019-06-10T03:51:04.311Z,15.41
2019-06-10T03:52:04.275Z,15.49
2019-06-10T03:53:04.503Z,15.49
2019-06-10T03:54:04.269Z,15.53
2019-06-10T03:55:04.244Z,15.54
2019-06-10T03:56:04.264Z,15.59
2019-06-10T03:57:04.238Z,15.62
2019-06-10T03:58:04.212Z,15.68
2019-06-10T03:59:04.225Z,15.69
2019-06-10T04:00:10.634Z,15.68
2019-06-10T04:01:05.210Z,15.69
2019-06-10T04:02:04.175Z,15.74
2019-06-10T04:03:04.150Z,15.71
2019-06-10T04:04:04.154Z,15.75
2019-06-10T04:05:04.138Z,15.72
2019-06-10T04:06:04.159Z,15.72
2019-06-10T04:07:04.169Z,15.76
2019-06-10T04:08:15.068Z,15.80
2019-06-10T04:09:04.099Z,15.80
2019-06-10T04:10:04.073Z,15.80
2019-06-10T04:11:04.067Z,15.82
2019-06-10T04:12:04.063Z,15.83
2019-06-10T04:13:04.044Z,15.84
2019-06-10T04:14:04.035Z,15.84
2019-06-10T04:15:04.036Z,15.86
2019-06-10T04:16:04.028Z,15.89
2019-06-10T04:17:04.051Z,15.87
2019-06-10T04:18:04.170Z,15.89
2019-06-10T04:19:04.005Z,15.92
2019-06-10T04:20:11.519Z,15.96
2019-06-10T04:21:04.983Z,15.94
2019-06-10T04:22:03.964Z,15.93
2019-06-10T04:23:03.986Z,15.94
2019-06-10T04:24:03.927Z,15.96
2019-06-10T04:25:03.955Z,15.96
2019-06-10T04:26:03.913Z,15.96
2019-06-10T04:27:03.912Z,15.93
2019-06-10T04:28:03.907Z,15.92
2019-06-10T04:29:03.924Z,15.94
2019-06-10T04:30:03.883Z,16.01
2019-06-10T04:31:03.864Z,16.02
2019-06-10T04:32:03.857Z,16.01
2019-06-10T04:33:03.876Z,16.04
2019-06-10T04:34:03.823Z,16.09
2019-06-10T04:35:03.823Z,16.09
2019-06-10T04:36:03.801Z,16.08
2019-06-10T04:37:03.804Z,16.11
2019-06-10T04:38:03.784Z,16.17
2019-06-10T04:39:14.736Z,16.14
2019-06-10T04:40:03.755Z,16.12
2019-06-10T04:41:03.771Z,16.17
2019-06-10T04:42:03.723Z,16.21
2019-06-10T04:43:03.723Z,16.23
2019-06-10T04:44:03.746Z,16.25
2019-06-10T04:45:03.713Z,16.24
2019-06-10T04:46:03.692Z,16.28
2019-06-10T04:47:03.693Z,16.38
2019-06-10T04:48:03.686Z,16.46
2019-06-10T04:49:03.726Z,16.57
2019-06-10T04:50:03.692Z,16.60
2019-06-10T04:51:03.645Z,16.64
2019-06-10T04:52:03.654Z,16.67
2019-06-10T04:53:03.633Z,16.66
2019-06-10T04:54:03.635Z,16.63
2019-06-10T04:55:03.615Z,16.68
2019-06-10T04:56:03.585Z,16.68
2019-06-10T04:57:03.604Z,16.68
2019-06-10T04:58:03.584Z,16.68
2019-06-10T04:59:03.569Z,16.70
2019-06-10T05:00:10.982Z,16.73
2019-06-10T05:01:05.065Z,16.79
2019-06-10T05:02:05.596Z,16.86
2019-06-10T05:03:03.544Z,16.93
2019-06-10T05:04:03.522Z,16.98
2019-06-10T05:05:03.502Z,16.98
2019-06-10T05:06:03.619Z,17.00
2019-06-10T05:07:03.511Z,17.03
2019-06-10T05:08:03.472Z,17.08
2019-06-10T05:09:04.187Z,17.14
2019-06-10T05:10:15.393Z,17.12
2019-06-10T05:11:03.892Z,17.16
2019-06-10T05:12:03.436Z,17.25
2019-06-10T05:13:03.411Z,17.28
2019-06-10T05:14:03.395Z,17.34
2019-06-10T05:15:03.679Z,17.31
2019-06-10T05:16:03.880Z,17.26
2019-06-10T05:17:03.376Z,17.26
2019-06-10T05:18:03.445Z,17.34
2019-06-10T05:19:03.907Z,17.38
2019-06-10T05:20:03.331Z,17.43
2019-06-10T05:21:03.327Z,17.48
2019-06-10T05:22:03.386Z,17.49
2019-06-10T05:23:03.312Z,17.44
2019-06-10T05:24:03.295Z,17.37
2019-06-10T05:25:03.285Z,17.41
2019-06-10T05:26:03.263Z,17.51
2019-06-10T05:27:03.302Z,17.62
2019-06-10T05:28:03.264Z,17.71
2019-06-10T05:29:03.351Z,17.71
2019-06-10T05:30:03.237Z,17.77
2019-06-10T05:31:03.217Z,17.79
2019-06-10T05:32:03.213Z,17.84
2019-06-10T05:33:03.214Z,17.87
2019-06-10T05:34:03.181Z,17.89
2019-06-10T05:35:03.653Z,17.86
2019-06-10T05:36:03.175Z,17.87
2019-06-10T05:37:03.157Z,17.89
2019-06-10T05:38:03.214Z,17.93
2019-06-10T05:39:03.142Z,17.90
2019-06-10T05:40:03.141Z,18.00
2019-06-10T05:41:13.633Z,18.00
2019-06-10T05:42:03.377Z,17.97
2019-06-10T05:43:03.102Z,17.96
2019-06-10T05:44:03.083Z,17.97
2019-06-10T05:45:03.255Z,17.99
2019-06-10T05:46:03.279Z,17.96
2019-06-10T05:47:03.712Z,17.95
2019-06-10T05:48:03.034Z,17.99
2019-06-10T05:49:03.197Z,17.97
2019-06-10T05:50:03.373Z,17.96
2019-06-10T05:51:06.488Z,17.89
2019-06-10T05:52:03.014Z,17.90
2019-06-10T05:53:02.983Z,17.92
2019-06-10T05:54:03.019Z,17.97
2019-06-10T05:55:03.054Z,18.07
2019-06-10T05:56:02.983Z,18.03
2019-06-10T05:57:02.962Z,18.07
2019-06-10T05:58:02.987Z,18.07
2019-06-10T05:59:04.376Z,18.05
2019-06-10T06:00:10.878Z,17.99
2019-06-10T06:01:03.921Z,17.93
2019-06-10T06:02:02.901Z,17.89
2019-06-10T06:03:02.893Z,17.90
2019-06-10T06:04:03.338Z,17.84
2019-06-10T06:05:02.910Z,17.79
2019-06-10T06:06:03.289Z,17.87
2019-06-10T06:07:02.843Z,17.95
2019-06-10T06:08:08.367Z,17.97
2019-06-10T06:09:03.823Z,18.07
2019-06-10T06:10:02.813Z,18.07
2019-06-10T06:11:03.353Z,18.11
2019-06-10T06:12:15.400Z,18.11
2019-06-10T06:13:03.132Z,18.23
2019-06-10T06:14:02.901Z,18.30
2019-06-10T06:15:02.745Z,18.32
2019-06-10T06:16:03.495Z,18.37
2019-06-10T06:17:02.748Z,18.48
2019-06-10T06:18:09.392Z,18.57
2019-06-10T06:19:03.716Z,18.58
2019-06-10T06:20:02.880Z,18.66
2019-06-10T06:21:19.473Z,18.67
2019-06-10T06:22:03.727Z,18.58
2019-06-10T06:23:02.861Z,18.57
2019-06-10T06:24:03.933Z,18.69
2019-06-10T06:25:03.799Z,18.76
2019-06-10T06:26:03.949Z,18.80
2019-06-10T06:27:02.630Z,18.73
2019-06-10T06:28:03.009Z,18.57
2019-06-10T06:29:02.603Z,18.42
2019-06-10T06:30:10.617Z,18.23
2019-06-10T06:31:03.648Z,18.15
2019-06-10T06:32:02.741Z,18.18
2019-06-10T06:33:03.096Z,18.23
2019-06-10T06:34:03.148Z,18.33
2019-06-10T06:35:02.537Z,18.41
2019-06-10T06:36:03.472Z,18.50
2019-06-10T06:37:02.513Z,18.51
2019-06-10T06:38:02.693Z,18.60
2019-06-10T06:39:02.507Z,18.54
2019-06-10T06:40:02.916Z,18.62
2019-06-10T06:41:03.260Z,18.66
2019-06-10T06:42:02.471Z,18.55
2019-06-10T06:43:12.529Z,18.41
2019-06-10T06:44:02.490Z,18.32
2019-06-10T06:45:03.076Z,18.26
2019-06-10T06:46:02.762Z,18.25
2019-06-10T06:47:02.800Z,18.32
2019-06-10T06:48:02.986Z,18.44
2019-06-10T06:49:02.388Z,18.62
2019-06-10T06:50:02.808Z,18.81
2019-06-10T06:51:07.571Z,18.90
2019-06-10T06:52:03.396Z,19.07
2019-06-10T06:53:19.681Z,19.08
2019-06-10T06:54:03.431Z,19.21
2019-06-10T06:55:02.611Z,19.19
2019-06-10T06:56:03.632Z,19.14
2019-06-10T06:57:03.517Z,19.08
2019-06-10T06:58:03.357Z,18.99
2019-06-10T06:59:02.607Z,19.02
2019-06-10T07:00:29.848Z,19.02
2019-06-10T07:01:10.243Z,19.06
2019-06-10T07:02:03.257Z,19.11
2019-06-10T07:03:03.117Z,19.19
2019-06-10T07:04:02.767Z,19.19
2019-06-10T07:05:03.142Z,19.23
2019-06-10T07:06:02.798Z,19.36
2019-06-10T07:07:02.671Z,19.41
2019-06-10T07:08:02.469Z,19.40
2019-06-10T07:09:07.695Z,19.39
2019-06-10T07:10:03.476Z,19.36
2019-06-10T07:11:02.828Z,19.32
2019-06-10T07:12:02.582Z,19.25
2019-06-10T07:13:02.830Z,19.19
2019-06-10T07:14:13.582Z,19.18
2019-06-10T07:15:04.173Z,19.13
2019-06-10T07:16:02.977Z,19.10
2019-06-10T07:17:03.935Z,19.02
2019-06-10T07:18:02.434Z,18.98
2019-06-10T07:19:02.606Z,18.88
2019-06-10T07:20:03.285Z,18.84
2019-06-10T07:21:02.708Z,18.75
2019-06-10T07:22:11.530Z,18.70
2019-06-10T07:23:03.034Z,18.72
2019-06-10T07:24:03.251Z,18.73
2019-06-10T07:25:06.365Z,18.70
2019-06-10T07:26:02.438Z,18.69
2019-06-10T07:27:02.737Z,18.67
2019-06-10T07:28:02.110Z,18.69
2019-06-10T07:29:02.916Z,18.66
2019-06-10T07:30:11.297Z,18.62
2019-06-10T07:31:03.451Z,18.58
2019-06-10T07:32:03.363Z,18.57
2019-06-10T07:33:02.970Z,18.65
2019-06-10T07:34:02.583Z,18.69
2019-06-10T07:35:02.909Z,18.66
2019-06-10T07:36:03.308Z,18.66
2019-06-10T07:37:02.595Z,18.80
2019-06-10T07:38:03.117Z,18.90
2019-06-10T07:39:03.483Z,19.02
2019-06-10T07:40:03.069Z,19.11
2019-06-10T07:41:02.620Z,19.22
2019-06-10T07:42:03.128Z,19.23
2019-06-10T07:43:02.330Z,19.19
2019-06-10T07:44:03.097Z,19.18
2019-06-10T07:45:13.056Z,19.08
2019-06-10T07:46:03.351Z,19.13
2019-06-10T07:47:02.595Z,19.18
2019-06-10T07:48:02.859Z,19.28
2019-06-10T07:49:03.315Z,19.39
2019-06-10T07:50:03.016Z,19.43
2019-06-10T07:51:02.807Z,19.54
2019-06-10T07:52:14.876Z,19.68
2019-06-10T07:53:02.741Z,19.73
2019-06-10T07:54:03.217Z,19.63
2019-06-10T07:55:02.523Z,19.56
2019-06-10T07:56:03.188Z,19.51
2019-06-10T07:57:02.413Z,19.59
2019-06-10T07:58:02.504Z,19.69
2019-06-10T07:59:03.881Z,19.68
2019-06-10T08:00:03.088Z,19.83
2019-06-10T08:01:02.686Z,19.94
2019-06-10T08:02:03.044Z,20.03
2019-06-10T08:03:02.470Z,20.13
2019-06-10T08:04:03.097Z,20.26
2019-06-10T08:05:03.680Z,20.24
2019-06-10T08:06:03.365Z,20.24
2019-06-10T08:07:03.319Z,20.26
2019-06-10T08:08:02.811Z,20.14
2019-06-10T08:09:02.267Z,20.06
2019-06-10T08:10:02.867Z,20.20
2019-06-10T08:11:03.353Z,20.32
2019-06-10T08:12:05.729Z,20.14
2019-06-10T08:13:02.969Z,20.02
2019-06-10T08:14:04.544Z,19.94
2019-06-10T08:15:02.683Z,20.03
2019-06-10T08:16:13.156Z,20.06
2019-06-10T08:17:03.147Z,20.05
2019-06-10T08:18:04.275Z,20.10
2019-06-10T08:19:30.126Z,20.10
2019-06-10T08:20:02.666Z,19.94
2019-06-10T08:21:03.215Z,19.80
2019-06-10T08:22:02.848Z,19.80
2019-06-10T08:23:02.216Z,19.84
2019-06-10T08:24:03.523Z,19.86
2019-06-10T08:25:04.839Z,19.99
2019-06-10T08:26:03.409Z,20.10
2019-06-10T08:27:02.686Z,20.24
2019-06-10T08:28:03.040Z,20.20
2019-06-10T08:29:04.159Z,20.16
2019-06-10T08:30:15.334Z,20.20
2019-06-10T08:31:03.678Z,20.10
2019-06-10T08:32:03.349Z,19.96
2019-06-10T08:33:03.379Z,19.87
2019-06-10T08:34:03.034Z,19.92
2019-06-10T08:35:02.783Z,20.02
2019-06-10T08:36:03.822Z,20.13
2019-06-10T08:37:04.432Z,20.16
2019-06-10T08:38:02.449Z,20.21
2019-06-10T08:39:03.249Z,20.32
2019-06-10T08:40:03.613Z,20.35
2019-06-10T08:41:03.226Z,20.29
2019-06-10T08:42:03.136Z,20.13
2019-06-10T08:43:04.044Z,20.10
2019-06-10T08:44:02.260Z,20.14
2019-06-10T08:45:03.491Z,20.13
2019-06-10T08:46:02.557Z,20.13
2019-06-10T08:47:12.460Z,20.11
2019-06-10T08:48:02.753Z,20.11
2019-06-10T08:49:03.196Z,20.24
2019-06-10T08:50:02.660Z,20.31
2019-06-10T08:51:03.273Z,20.32
2019-06-10T08:52:02.763Z,20.33
2019-06-10T08:53:13.977Z,20.28
2019-06-10T08:54:02.476Z,20.18
2019-06-10T08:55:03.350Z,19.98
2019-06-10T08:56:02.860Z,19.81
2019-06-10T08:57:03.705Z,19.71
2019-06-10T08:58:02.769Z,19.63
2019-06-10T08:59:03.097Z,19.65
2019-06-10T09:00:10.668Z,19.74
2019-06-10T09:01:02.391Z,19.83
2019-06-10T09:02:02.962Z,19.65
2019-06-10T09:03:03.831Z,19.54
2019-06-10T09:04:03.080Z,19.71
2019-06-10T09:05:03.455Z,19.77
2019-06-10T09:06:02.705Z,19.78
2019-06-10T09:07:03.890Z,19.87
2019-06-10T09:08:02.827Z,20.02
2019-06-10T09:09:03.131Z,20.23
2019-06-10T09:10:02.962Z,20.17
2019-06-10T09:11:02.413Z,20.35
2019-06-10T09:12:03.447Z,20.50
2019-06-10T09:13:02.786Z,20.42
2019-06-10T09:14:02.587Z,20.47
2019-06-10T09:15:03.150Z,20.62
2019-06-10T09:16:12.872Z,20.66
2019-06-10T09:17:03.401Z,20.58
2019-06-10T09:18:13.955Z,20.50
2019-06-10T09:19:02.241Z,20.52
2019-06-10T09:20:02.937Z,20.36
2019-06-10T09:21:02.321Z,20.41
2019-06-10T09:22:03.231Z,20.35
2019-06-10T09:23:18.413Z,20.47
2019-06-10T09:24:03.953Z,20.57
2019-06-10T09:25:02.913Z,20.59
2019-06-10T09:26:03.278Z,20.55
2019-06-10T09:27:02.968Z,20.51
2019-06-10T09:28:02.359Z,20.52
2019-06-10T09:29:02.941Z,20.62
2019-06-10T09:30:02.973Z,20.76
2019-06-10T09:31:03.701Z,20.77
2019-06-10T09:32:02.183Z,20.66
2019-06-10T09:33:03.881Z,20.80
2019-06-10T09:34:00.649Z,20.82
2019-06-10T09:35:03.219Z,20.94
2019-06-10T09:36:03.001Z,20.97
2019-06-10T09:37:03.072Z,20.94
2019-06-10T09:38:00.591Z,20.92
2019-06-10T09:39:03.755Z,20.91
2019-06-10T09:40:03.215Z,20.87
2019-06-10T09:41:04.917Z,20.94
2019-06-10T09:42:06.107Z,21.01
2019-06-10T09:43:02.515Z,21.10
2019-06-10T09:44:03.030Z,21.19
2019-06-10T09:45:02.631Z,21.16
2019-06-10T09:46:03.238Z,21.06
2019-06-10T09:47:03.270Z,20.97
2019-06-10T09:48:03.876Z,20.97
2019-06-10T09:49:12.729Z,20.82
2019-06-10T09:50:03.053Z,20.72
2019-06-10T09:51:02.527Z,20.70
2019-06-10T09:52:03.114Z,20.70
2019-06-10T09:53:00.448Z,20.74
2019-06-10T09:54:03.612Z,20.84
2019-06-10T09:55:02.773Z,20.88
2019-06-10T09:56:00.402Z,20.99
2019-06-10T09:57:02.427Z,21.04
2019-06-10T09:58:03.101Z,21.06
2019-06-10T09:59:00.377Z,20.91
2019-06-10T10:00:03.077Z,21.04
2019-06-10T10:01:02.960Z,21.13
2019-06-10T10:02:03.677Z,21.03
2019-06-10T10:03:03.368Z,21.10
2019-06-10T10:04:00.750Z,21.16
2019-06-10T10:05:00.331Z,21.16
2019-06-10T10:06:11.435Z,21.25
2019-06-10T10:07:03.065Z,21.38
2019-06-10T10:08:00.286Z,21.43
2019-06-10T10:09:00.281Z,21.43
2019-06-10T10:10:00.253Z,21.34
2019-06-10T10:11:00.253Z,21.29
2019-06-10T10:12:02.882Z,21.22
2019-06-10T10:13:02.565Z,21.25
2019-06-10T10:14:00.210Z,21.34
2019-06-10T10:15:16.331Z,21.44
2019-06-10T10:16:02.633Z,21.59
2019-06-10T10:17:01.317Z,21.72
2019-06-10T10:18:02.510Z,21.80
2019-06-10T10:19:01.558Z,21.62
2019-06-10T10:20:12.214Z,21.38
2019-06-10T10:21:03.121Z,21.31
2019-06-10T10:22:00.139Z,21.22
2019-06-10T10:23:02.526Z,21.37
2019-06-10T10:24:06.885Z,21.56
2019-06-10T10:25:03.018Z,21.72
2019-06-10T10:26:00.114Z,21.72
2019-06-10T10:27:02.619Z,21.56
2019-06-10T10:28:03.175Z,21.42
2019-06-10T10:29:02.636Z,21.46
2019-06-10T10:30:00.070Z,21.61
2019-06-10T10:31:00.048Z,21.79
2019-06-10T10:32:02.451Z,21.86
2019-06-10T10:33:02.548Z,21.86
2019-06-10T10:34:02.202Z,21.92
2019-06-10T10:35:02.826Z,21.84
2019-06-10T10:36:02.154Z,21.83
2019-06-10T10:36:59.980Z,21.92
2019-06-10T10:37:59.965Z,21.94
2019-06-10T10:39:02.282Z,21.92
2019-06-10T10:39:59.956Z,21.88
2019-06-10T10:40:59.979Z,21.91
2019-06-10T10:41:59.932Z,21.49
2019-06-10T10:43:19.810Z,21.59
2019-06-10T10:44:03.112Z,21.62
2019-06-10T10:45:02.585Z,21.47
2019-06-10T10:46:01.149Z,21.53
2019-06-10T10:47:03.496Z,21.64
2019-06-10T10:48:02.371Z,21.58
2019-06-10T10:49:02.506Z,21.58
2019-06-10T10:50:02.563Z,21.74
2019-06-10T10:51:12.940Z,21.88
2019-06-10T10:52:02.510Z,21.82
2019-06-10T10:52:59.821Z,21.77
2019-06-10T10:54:21.197Z,21.82
2019-06-10T10:55:06.441Z,21.80
2019-06-10T10:56:02.232Z,21.86
2019-06-10T10:56:59.808Z,21.88
2019-06-10T10:57:59.769Z,21.84
2019-06-10T10:59:02.015Z,21.61
2019-06-10T10:59:59.812Z,21.61
2019-06-10T11:00:59.748Z,21.74
2019-06-10T11:02:02.201Z,21.86
2019-06-10T11:02:59.738Z,21.98
2019-06-10T11:04:02.732Z,22.10
2019-06-10T11:04:59.682Z,22.15
2019-06-10T11:06:01.091Z,22.17
2019-06-10T11:07:01.137Z,22.22
2019-06-10T11:07:59.662Z,22.17
2019-06-10T11:08:59.661Z,22.12
2019-06-10T11:09:59.630Z,22.21
2019-06-10T11:11:03.656Z,22.28
2019-06-10T11:11:59.613Z,22.33
2019-06-10T11:12:59.598Z,22.24
2019-06-10T11:13:59.592Z,22.25
2019-06-10T11:15:02.128Z,22.24
2019-06-10T11:16:03.324Z,21.94
2019-06-10T11:16:59.548Z,21.82
2019-06-10T11:17:59.564Z,21.56
2019-06-10T11:18:59.574Z,21.71
2019-06-10T11:19:59.511Z,21.79
2019-06-10T11:21:04.281Z,21.69
2019-06-10T11:23:12.521Z,22.09
2019-06-10T11:24:15.860Z,22.20
2019-06-10T11:25:13.384Z,22.25
2019-06-10T11:26:13.182Z,22.30
2019-06-10T11:27:12.829Z,22.30
2019-06-10T11:28:12.340Z,22.37
2019-06-10T11:29:12.334Z,22.39
2019-06-10T11:30:12.452Z,22.52
2019-06-10T11:31:13.724Z,22.57
2019-06-10T11:32:12.297Z,22.60
2019-06-10T11:33:12.280Z,22.60
2019-06-10T11:34:12.281Z,22.72
2019-06-10T11:35:12.338Z,22.73
2019-06-10T11:36:13.539Z,22.76
2019-06-10T11:37:12.738Z,22.85
2019-06-10T11:38:12.840Z,22.85
2019-06-10T11:39:13.387Z,22.85
2019-06-10T11:40:13.545Z,22.95
2019-06-10T11:41:13.586Z,23.01
2019-06-10T11:42:13.247Z,22.90
2019-06-10T11:43:13.098Z,22.83
2019-06-10T11:44:12.192Z,22.68
2019-06-10T11:45:12.160Z,22.76
2019-06-10T11:46:13.766Z,22.91
2019-06-10T11:47:13.136Z,22.86
2019-06-10T11:48:13.006Z,22.77
2019-06-10T11:49:12.674Z,22.75
2019-06-10T11:50:12.207Z,22.79
2019-06-10T11:51:13.083Z,22.76
2019-06-10T11:52:12.610Z,22.92
2019-06-10T11:53:19.066Z,22.62
2019-06-10T11:54:12.786Z,22.42
2019-06-10T11:55:18.762Z,22.37
2019-06-10T11:56:13.338Z,22.49
2019-06-10T11:57:12.563Z,22.75
2019-06-10T11:58:12.039Z,22.91
2019-06-10T11:59:13.449Z,23.12
2019-06-10T12:00:16.623Z,23.38
2019-06-10T12:01:13.438Z,23.33
2019-06-10T12:02:13.251Z,23.33
2019-06-10T12:03:13.166Z,23.40
2019-06-10T12:04:12.840Z,23.47
2019-06-10T12:05:12.993Z,23.36
2019-06-10T12:06:13.679Z,23.54
2019-06-10T12:07:12.876Z,23.70
2019-06-10T12:08:13.071Z,23.66
2019-06-10T12:09:13.728Z,23.38
2019-06-10T12:10:12.894Z,22.92
2019-06-10T12:11:12.605Z,22.67
2019-06-10T12:12:12.931Z,22.52
2019-06-10T12:13:13.369Z,22.43
2019-06-10T12:14:12.857Z,22.67
2019-06-10T12:15:12.198Z,23.02
2019-06-10T12:17:05.729Z,22.82
2019-06-10T12:17:24.599Z,22.68
2019-06-10T12:18:13.277Z,22.61
2019-06-10T12:19:12.692Z,22.54
2019-06-10T12:20:13.351Z,22.43
2019-06-10T12:21:13.203Z,22.37
2019-06-10T12:22:13.393Z,22.14
2019-06-10T12:23:12.743Z,22.05
2019-06-10T12:24:23.127Z,22.31
2019-06-10T12:25:31.277Z,22.62
2019-06-10T12:26:12.750Z,22.75
2019-06-10T12:27:13.090Z,22.67
2019-06-10T12:28:12.888Z,22.51
2019-06-10T12:29:12.410Z,22.47
2019-06-10T12:30:13.309Z,22.80
2019-06-10T12:31:13.566Z,23.02
2019-06-10T12:32:13.491Z,22.83
2019-06-10T12:33:19.891Z,22.73
2019-06-10T12:34:12.713Z,22.80
2019-06-10T12:35:13.743Z,22.80
2019-06-10T12:36:12.794Z,22.58
2019-06-10T12:37:15.759Z,22.52
2019-06-10T12:38:13.802Z,22.76
2019-06-10T12:39:15.287Z,22.92
2019-06-10T12:40:12.881Z,22.64
2019-06-10T12:41:13.917Z,22.54
2019-06-10T12:42:14.108Z,22.61
2019-06-10T12:43:12.609Z,22.79
2019-06-10T12:44:12.340Z,22.97
2019-06-10T12:45:12.752Z,23.10
2019-06-10T12:46:12.771Z,23.25
2019-06-10T12:47:11.523Z,23.10
2019-06-10T12:48:13.363Z,23.05
2019-06-10T12:49:13.117Z,22.82
2019-06-10T12:50:12.055Z,22.64
2019-06-10T12:51:13.506Z,22.47
2019-06-10T12:52:12.501Z,22.31
2019-06-10T12:53:12.560Z,22.20